Time;durP1;ratioP1;P1;durP2;ratioP2;P2;SDS_P1;SDS_P2;PMS_P1;PMS_P2;Temp;Humidity;BMP_temperature;BMP_pressure;BME280_temperature;BME280_humidity;BME280_pressure;Samples;Min_cycle;Max_cycle;Signal;HPM_P1;HPM_P2
2023/08/14 00:02:14;;;;;;;4.50;2.38;;;;;;;16.86;83.62;101695.59;7402545;19;19914;-76
2023/08/14 00:04:43;;;;;;;4.05;2.45;;;;;;;16.84;84.24;101695.78;7402576;19;20297;-76
2023/08/14 00:07:11;;;;;;;3.88;2.58;;;;;;;16.81;84.08;101701.63;7402449;19;19923;-76
2023/08/14 00:09:40;;;;;;;4.45;2.25;;;;;;;16.77;84.05;101705.78;7402810;19;20321;-76
2023/08/14 00:12:09;;;;;;;4.63;2.65;;;;;;;16.74;84.13;101706.16;7400574;19;20444;-77
2023/08/14 00:14:38;;;;;;;5.00;2.60;;;;;;;16.71;84.22;101701.13;7401101;19;19953;-76
2023/08/14 00:17:07;;;;;;;4.05;2.22;;;;;;;16.67;83.88;101695.25;7402534;19;19934;-77
2023/08/14 00:19:39;;;;;;;3.95;2.22;;;;;;;16.66;84.19;101693.56;7404824;19;19974;-76
2023/08/14 00:22:08;;;;;;;5.95;2.58;;;;;;;16.66;84.46;101699.00;7402515;19;19910;-76
2023/08/14 00:24:36;;;;;;;3.60;2.60;;;;;;;16.65;84.39;101700.03;7402748;19;19929;-76
2023/08/14 00:27:05;;;;;;;3.90;2.40;;;;;;;16.63;84.31;101704.00;7403131;19;19946;-77
2023/08/14 00:29:33;;;;;;;3.33;2.35;;;;;;;16.60;84.25;101693.50;7403738;19;20400;-77
2023/08/14 00:32:02;;;;;;;4.22;2.58;;;;;;;16.61;84.51;101689.75;7403299;19;19915;-77
2023/08/14 00:34:31;;;;;;;5.40;2.78;;;;;;;16.59;84.07;101692.66;7401235;19;19923;-76
2023/08/14 00:37:02;;;;;;;3.00;2.20;;;;;;;16.57;84.18;101686.56;7401912;19;19927;-76
2023/08/14 00:39:30;;;;;;;;;;;;;;;16.29;85.50;101686.50;7404834;19;19922;-76
2023/08/14 00:41:59;;;;;;;6.93;2.88;;;;;;;16.47;84.83;101682.47;7402528;19;19942;-76
2023/08/14 00:44:30;;;;;;;5.43;2.65;;;;;;;16.47;84.56;101683.34;7402306;19;19910;-77
2023/08/14 00:46:58;;;;;;;5.75;2.60;;;;;;;16.46;84.50;101676.19;7404432;19;19937;-76
2023/08/14 00:49:27;;;;;;;4.43;2.75;;;;;;;16.44;84.74;101680.97;7404621;19;19918;-76
2023/08/14 00:51:56;;;;;;;4.20;2.65;;;;;;;16.42;84.69;101685.78;7403399;19;20389;-76
2023/08/14 00:54:27;;;;;;;5.93;2.78;;;;;;;16.43;84.93;101681.19;7402143;19;19942;-77
2023/08/14 00:56:56;;;;;;;6.00;2.92;;;;;;;16.41;84.53;101681.38;7402597;19;19918;-76
2023/08/14 00:59:25;;;;;;;4.22;2.80;;;;;;;16.40;84.86;101685.13;7401491;19;19922;-76
2023/08/14 01:01:53;;;;;;;5.00;2.47;;;;;;;16.37;85.05;101680.09;7401318;19;19914;-77
2023/08/14 01:04:22;;;;;;;2.83;2.40;;;;;;;16.38;84.58;101679.06;7401704;19;20011;-76
2023/08/14 01:06:51;;;;;;;5.18;3.40;;;;;;;16.37;84.72;101687.41;7401331;19;19922;-77
2023/08/14 01:09:20;;;;;;;3.42;2.55;;;;;;;16.33;84.78;101686.97;7401352;19;19919;-77
2023/08/14 01:11:58;;;;;;;4.22;2.88;;;;;;;16.29;85.07;101686.50;7401340;19;19915;-76
2023/08/14 01:14:32;;;;;;;3.63;2.90;;;;;;;16.31;84.78;101683.56;7400381;19;19922;-77
2023/08/14 01:17:05;;;;;;;4.05;2.72;;;;;;;16.29;84.84;101683.78;7401176;19;19942;-76
2023/08/14 01:19:36;;;;;;;3.80;2.55;;;;;;;16.30;84.92;101685.47;7404038;19;20286;-77
2023/08/14 01:22:07;;;;;;;7.18;2.53;;;;;;;16.29;84.80;101677.50;7402873;19;19918;-76
2023/08/14 01:24:44;;;;;;;3.58;2.90;;;;;;;16.24;84.72;101678.09;7401612;19;19931;-76
2023/08/14 01:27:16;;;;;;;4.90;2.58;;;;;;;16.23;85.11;101670.97;7401514;19;19946;-76
2023/08/14 01:29:45;;;;;;;2.67;2.35;;;;;;;16.22;84.98;101677.44;7400748;19;20362;-76
2023/08/14 01:32:14;;;;;;;5.05;2.58;;;;;;;16.19;85.18;101672.38;7401181;19;19953;-76
2023/08/14 01:34:42;;;;;;;4.30;2.53;;;;;;;16.18;85.11;101670.69;7398291;19;19958;-76
2023/08/14 01:37:15;;;;;;;6.05;2.50;;;;;;;16.20;84.75;101665.06;7399579;19;20339;-76
2023/08/14 01:39:50;;;;;;;4.72;2.35;;;;;;;16.20;84.96;101662.34;7399722;19;19915;-76
2023/08/14 01:42:28;;;;;;;3.83;2.40;;;;;;;16.17;85.02;101662.75;7400583;19;20616;-76
2023/08/14 01:45:02;;;;;;;3.38;2.38;;;;;;;16.17;84.81;101654.59;7400025;19;19927;-76
2023/08/14 01:47:33;;;;;;;4.43;2.30;;;;;;;16.15;85.00;101657.50;7400223;19;19942;-76
2023/08/14 01:50:03;;;;;;;3.25;2.25;;;;;;;16.13;85.07;101664.19;7400341;19;19982;-76
2023/08/14 01:52:32;;;;;;;4.57;2.05;;;;;;;16.11;85.26;101658.94;7399889;19;19914;-76
2023/08/14 01:55:02;;;;;;;4.82;2.58;;;;;;;16.10;85.21;101657.25;7398827;19;19942;-77
2023/08/14 01:57:33;;;;;;;3.17;2.33;;;;;;;16.10;84.88;101653.69;7400501;19;19918;-76
2023/08/14 02:00:05;;;;;;;5.18;2.50;;;;;;;16.11;84.66;101672.53;7400003;19;20258;-76
2023/08/14 02:02:33;;;;;;;6.05;2.45;;;;;;;16.08;85.15;101663.91;7400076;19;19922;-76
2023/08/14 02:05:03;;;;;;;3.13;2.50;;;;;;;16.05;85.54;101659.69;7399704;19;19942;-76
2023/08/14 02:07:32;;;;;;;5.63;2.83;;;;;;;16.02;85.85;101660.09;7399830;19;20301;-76
2023/08/14 02:10:00;;;;;;;3.80;2.60;;;;;;;16.00;85.67;101655.88;7400176;19;19926;-76
2023/08/14 02:12:30;;;;;;;4.55;2.33;;;;;;;15.97;85.85;101654.38;7399386;19;19914;-76
2023/08/14 02:15:01;;;;;;;4.07;2.72;;;;;;;15.95;85.68;101656.47;7398400;19;19946;-76
2023/08/14 02:17:30;;;;;;;3.65;2.53;;;;;;;15.93;85.77;101650.38;7399409;19;19962;-78
2023/08/14 02:19:59;;;;;;;8.55;3.55;;;;;;;15.91;86.13;101643.47;7402790;19;19922;-77
2023/08/14 02:22:28;;;;;;;3.33;2.50;;;;;;;15.90;85.62;101650.75;7399268;19;20550;-75
2023/08/14 02:24:57;;;;;;;3.95;3.00;;;;;;;15.89;85.72;101644.47;7399102;19;19919;-75
2023/08/14 02:27:25;;;;;;;4.75;2.60;;;;;;;15.88;85.64;101644.66;7399289;19;19915;-76
2023/08/14 02:29:54;;;;;;;3.90;2.47;;;;;;;15.86;85.74;101646.75;7398996;19;19919;-76
2023/08/14 02:32:25;;;;;;;2.25;1.90;;;;;;;15.85;85.45;101642.34;7399523;19;19923;-76
2023/08/14 02:34:55;;;;;;;4.65;2.78;;;;;;;15.84;85.47;101644.22;7397991;19;19919;-75
2023/08/14 02:37:25;;;;;;;3.70;2.70;;;;;;;15.85;85.58;101642.34;7397583;19;20502;-76
2023/08/14 02:39:53;;;;;;;4.28;2.67;;;;;;;15.82;85.97;101643.59;7397894;19;20344;-76
2023/08/14 02:42:25;;;;;;;5.95;2.70;;;;;;;15.80;85.80;101636.63;7399031;19;20320;-76
2023/08/14 02:44:53;;;;;;;5.75;2.67;;;;;;;15.81;85.87;101638.34;7398742;19;20544;-75
2023/08/14 02:47:24;;;;;;;5.50;2.45;;;;;;;15.84;85.62;101632.50;7404518;19;19911;-76
2023/08/14 02:49:53;;;;;;;3.90;2.63;;;;;;;15.84;85.34;101637.94;7404589;19;19918;-76
2023/08/14 02:52:22;;;;;;;4.68;2.20;;;;;;;15.81;85.50;101633.75;7404525;19;19915;-76
2023/08/14 02:54:50;;;;;;;4.97;2.90;;;;;;;15.80;85.62;101628.50;7403621;19;19932;-76
2023/08/14 02:57:19;;;;;;;5.95;3.28;;;;;;;15.80;85.57;101631.22;7405027;19;19942;-75
2023/08/14 02:59:47;;;;;;;4.68;2.55;;;;;;;15.78;85.57;101619.72;7404742;19;19922;-76
2023/08/14 03:02:16;;;;;;;4.03;2.65;;;;;;;15.76;85.77;101619.88;7404951;19;20390;-76
2023/08/14 03:04:47;;;;;;;4.07;2.80;;;;;;;15.73;85.68;101625.72;7405154;19;20336;-76
2023/08/14 03:07:16;;;;;;;5.00;3.30;;;;;;;15.70;85.56;101625.25;7404977;19;19915;-75
2023/08/14 03:09:44;;;;;;;3.78;3.22;;;;;;;15.68;85.61;101624.59;7403581;19;19914;-76
2023/08/14 03:12:13;;;;;;;3.17;2.80;;;;;;;15.67;85.78;101617.47;7403538;19;19946;-76
2023/08/14 03:14:41;;;;;;;3.15;2.83;;;;;;;15.67;85.92;101617.47;7403108;19;19950;-77
2023/08/14 03:17:10;;;;;;;4.15;2.95;;;;;;;15.65;86.03;101611.41;7403653;19;19915;-76
2023/08/14 03:19:39;;;;;;;3.65;2.63;;;;;;;15.63;85.88;101616.19;7406809;19;19911;-76
2023/08/14 03:22:11;;;;;;;3.85;3.00;;;;;;;15.61;85.83;101623.69;7403523;19;19937;-75
2023/08/14 03:24:40;;;;;;;;;;;;;;;15.37;86.85;101614.81;7405883;19;19918;-76
2023/08/14 03:27:08;;;;;;;5.38;3.63;;;;;;;15.53;86.03;101619.22;7403738;19;19942;-76
2023/08/14 03:29:37;;;;;;;6.57;3.42;;;;;;;15.52;86.16;101622.97;7403499;19;20340;-76
2023/08/14 03:32:06;;;;;;;5.05;3.22;;;;;;;15.50;86.22;101614.16;7404284;19;20371;-75
2023/08/14 03:34:34;;;;;;;4.60;3.05;;;;;;;15.48;86.62;101620.78;7403361;19;19922;-76
2023/08/14 03:37:03;;;;;;;6.65;2.92;;;;;;;15.44;86.49;101621.16;7402140;19;19939;-76
2023/08/14 03:39:34;;;;;;;5.63;3.28;;;;;;;15.39;86.48;101618.19;7402706;19;19923;-75
2023/08/14 03:42:02;;;;;;;5.15;3.20;;;;;;;15.38;86.80;101616.50;7404353;19;19922;-76
2023/08/14 03:44:31;;;;;;;5.03;3.78;;;;;;;15.39;86.60;101622.78;7403280;19;19922;-76
2023/08/14 03:47:00;;;;;;;5.55;3.25;;;;;;;15.37;86.83;101622.09;7403831;19;20317;-76
2023/08/14 03:49:28;;;;;;;4.80;3.10;;;;;;;15.37;86.29;101635.69;7402743;19;19926;-75
2023/08/14 03:51:57;;;;;;;4.45;3.10;;;;;;;15.35;86.47;101641.31;7402310;19;19950;-75
2023/08/14 03:54:26;;;;;;;5.20;3.28;;;;;;;15.34;86.36;101636.06;7402181;19;19918;-76
2023/08/14 03:56:57;;;;;;;5.82;2.88;;;;;;;15.32;86.45;101638.97;7401214;19;19931;-76
2023/08/14 03:59:25;;;;;;;4.88;3.42;;;;;;;15.28;86.85;101640.38;7402429;19;19956;-76
2023/08/14 04:01:54;;;;;;;5.03;2.75;;;;;;;15.28;86.58;101636.81;7402200;19;19919;-76
2023/08/14 04:04:23;;;;;;;6.07;4.00;;;;;;;15.26;86.61;101633.47;7402307;19;19939;-76
2023/08/14 04:06:51;;;;;;;5.05;3.40;;;;;;;15.23;86.70;101634.66;7402353;19;20315;-76
2023/08/14 04:09:20;;;;;;;7.65;3.55;;;;;;;15.21;86.60;101636.75;7402165;19;19915;-75
2023/08/14 04:11:49;;;;;;;4.68;3.17;;;;;;;15.20;86.80;101637.75;7402098;19;19919;-76
2023/08/14 04:14:20;;;;;;;4.22;3.53;;;;;;;15.21;86.70;101638.63;7402269;19;19923;-75
2023/08/14 04:16:49;;;;;;;4.80;2.97;;;;;;;15.17;86.99;101635.44;7400223;19;19922;-76
2023/08/14 04:19:19;;;;;;;4.45;3.42;;;;;;;15.19;86.52;101635.22;7405084;19;19918;-77
2023/08/14 04:21:49;;;;;;;5.03;3.05;;;;;;;15.15;86.50;101636.63;7402152;19;19919;-75
2023/08/14 04:24:18;;;;;;;5.82;3.10;;;;;;;15.13;86.69;101631.41;7401975;19;19954;-75
2023/08/14 04:26:47;;;;;;;5.30;3.22;;;;;;;15.13;86.91;101634.13;7401613;19;19910;-76
2023/08/14 04:29:16;;;;;;;5.75;3.00;;;;;;;15.13;87.01;101623.28;7401498;19;20336;-75
2023/08/14 04:31:48;;;;;;;5.93;3.22;;;;;;;15.14;86.83;101630.41;7401469;19;19915;-75
2023/08/14 04:34:17;;;;;;;6.88;3.00;;;;;;;15.15;86.53;101618.50;7401289;19;19952;-75
2023/08/14 04:36:46;;;;;;;8.13;3.72;;;;;;;15.16;86.58;101625.59;7399562;19;19922;-76
2023/08/14 04:39:15;;;;;;;5.50;3.65;;;;;;;15.17;86.67;101629.16;7401248;19;19923;-75
2023/08/14 04:41:43;;;;;;;4.15;3.25;;;;;;;15.16;86.75;101622.88;7401987;19;20311;-75
2023/08/14 04:44:12;;;;;;;7.10;3.10;;;;;;;15.18;86.74;101631.69;7401564;19;19914;-76
2023/08/14 04:46:41;;;;;;;5.13;3.17;;;;;;;15.20;86.68;101623.34;7401544;19;19954;-75
2023/08/14 04:49:12;;;;;;;5.60;3.10;;;;;;;15.21;86.76;101625.03;7401436;19;19943;-76
2023/08/14 04:51:41;;;;;;;5.88;3.40;;;;;;;15.22;86.24;101616.72;7402289;19;19922;-75
2023/08/14 04:54:09;;;;;;;4.72;3.35;;;;;;;15.24;86.66;101613.78;7403096;19;19946;-75
2023/08/14 04:56:38;;;;;;;4.97;2.95;;;;;;;15.29;86.52;101623.06;7402141;19;19932;-77
2023/08/14 04:59:07;;;;;;;5.55;3.28;;;;;;;15.31;86.28;101621.03;7402820;19;19922;-75
2023/08/14 05:01:35;;;;;;;6.93;3.50;;;;;;;15.29;86.43;101616.78;7402001;19;20352;-76
2023/08/14 05:04:04;;;;;;;4.72;2.92;;;;;;;15.31;86.22;101612.88;7401193;19;19922;-75
2023/08/14 05:06:35;;;;;;;7.43;3.03;;;;;;;15.30;86.31;101622.03;7401750;19;19914;-75
2023/08/14 05:09:03;;;;;;;5.40;3.28;;;;;;;15.29;86.36;101614.91;7398662;19;19923;-76
2023/08/14 05:11:33;;;;;;;3.28;2.90;;;;;;;15.35;86.32;101611.47;7400809;19;19915;-75
2023/08/14 05:14:01;;;;;;;7.63;3.58;;;;;;;15.38;86.23;101605.63;7400610;19;19922;-76
2023/08/14 05:16:30;;;;;;;4.35;3.00;;;;;;;15.42;85.99;101608.81;7398678;19;19948;-76
2023/08/14 05:18:59;;;;;;;5.20;3.45;;;;;;;15.47;86.46;101613.66;7402602;19;19931;-75
2023/08/14 05:21:27;;;;;;;4.25;2.80;;;;;;;15.52;86.60;101627.56;7400093;19;19953;-75
2023/08/14 05:23:58;;;;;;;4.63;3.00;;;;;;;15.57;86.30;101622.41;7400098;19;19914;-75
2023/08/14 05:26:28;;;;;;;7.10;3.20;;;;;;;15.62;86.49;101612.63;7400126;19;19918;-75
2023/08/14 05:28:56;;;;;;;5.32;3.75;;;;;;;15.66;86.19;101607.66;7399726;19;19927;-75
2023/08/14 05:31:25;;;;;;;6.05;3.75;;;;;;;15.68;86.26;101611.03;7399602;19;19915;-75
2023/08/14 05:33:54;;;;;;;6.82;3.83;;;;;;;15.72;86.36;101604.16;7399830;19;20340;-75
2023/08/14 05:36:22;;;;;;;8.90;3.75;;;;;;;15.76;86.00;101619.03;7398730;19;19945;-75
2023/08/14 05:38:51;;;;;;;5.75;3.33;;;;;;;15.80;86.32;101620.34;7400206;19;19958;-75
2023/08/14 05:41:22;;;;;;;6.00;3.45;;;;;;;15.84;86.33;101619.75;7400230;19;20366;-76
2023/08/14 05:43:51;;;;;;;6.07;3.63;;;;;;;15.90;86.61;101629.03;7399686;19;19914;-75
2023/08/14 05:46:23;;;;;;;11.00;3.60;;;;;;;15.96;86.25;101625.53;7399404;19;19942;-75
2023/08/14 05:48:53;;;;;;;10.23;3.78;;;;;;;16.02;86.09;101624.75;7399446;19;19926;-76
2023/08/14 05:51:22;;;;;;;7.38;4.40;;;;;;;16.08;86.17;101625.88;7399730;19;20266;-76
2023/08/14 05:53:50;;;;;;;5.00;3.65;;;;;;;16.13;85.76;101629.69;7399288;19;19914;-76
2023/08/14 05:56:21;;;;;;;5.82;3.78;;;;;;;16.17;86.12;101627.41;7398623;19;19923;-75
2023/08/14 05:58:50;;;;;;;6.25;3.83;;;;;;;16.21;86.16;101620.53;7399565;19;19911;-75
2023/08/14 06:01:18;;;;;;;6.28;4.45;;;;;;;16.27;85.68;101628.75;7399470;19;19938;-76
2023/08/14 06:03:47;;;;;;;8.65;4.32;;;;;;;16.32;86.28;101628.16;7398956;19;19915;-75
2023/08/14 06:06:16;;;;;;;5.30;3.90;;;;;;;16.39;86.22;101639.13;7399504;19;19934;-76
2023/08/14 06:08:44;;;;;;;7.47;4.18;;;;;;;16.41;86.40;101628.88;7398873;19;19931;-76
2023/08/14 06:11:13;;;;;;;7.47;4.07;;;;;;;16.45;85.96;101638.31;7399025;19;19942;-76
2023/08/14 06:13:44;;;;;;;7.15;4.32;;;;;;;16.49;86.43;101637.72;7400145;19;19926;-75
2023/08/14 06:16:13;;;;;;;8.48;4.57;;;;;;;16.54;86.75;101627.09;7398682;19;19911;-75
2023/08/14 06:18:42;;;;;;;5.25;4.18;;;;;;;16.59;86.16;101632.81;7401585;19;19918;-76
2023/08/14 06:21:11;;;;;;;6.03;3.90;;;;;;;16.64;86.40;101626.78;7404780;19;19946;-75
2023/08/14 06:23:39;;;;;;;7.10;4.40;;;;;;;16.70;85.93;101632.25;7406496;19;19914;-76
2023/08/14 06:26:09;;;;;;;7.55;4.65;;;;;;;16.75;85.84;101634.38;7405527;19;19922;-75
2023/08/14 06:28:38;;;;;;;8.63;4.93;;;;;;;16.79;85.61;101632.94;7405435;19;19919;-76
2023/08/14 06:31:09;;;;;;;8.57;4.97;;;;;;;16.83;85.86;101638.84;7405771;19;19914;-75
2023/08/14 06:33:38;;;;;;;8.15;4.78;;;;;;;16.88;86.14;101630.91;7405437;19;20230;-75
2023/08/14 06:36:07;;;;;;;7.28;4.60;;;;;;;16.91;86.04;101628.66;7404961;19;19915;-75
2023/08/14 06:38:37;;;;;;;10.15;4.85;;;;;;;16.97;85.81;101622.38;7405751;19;19915;-75
2023/08/14 06:41:05;;;;;;;8.55;4.70;;;;;;;17.04;86.14;101628.69;7402957;19;19918;-75
2023/08/14 06:43:34;;;;;;;8.63;4.60;;;;;;;17.12;86.73;101631.28;7406091;19;19926;-75
2023/08/14 06:46:02;;;;;;;10.30;5.43;;;;;;;17.18;86.29;101635.06;7405741;19;19942;-75
2023/08/14 06:48:34;;;;;;;7.45;4.80;;;;;;;17.20;85.09;101622.94;7405371;19;19931;-75
2023/08/14 06:51:02;;;;;;;9.88;5.03;;;;;;;17.20;85.39;101625.66;7405452;19;19935;-75
2023/08/14 06:53:31;;;;;;;5.57;4.97;;;;;;;17.25;85.26;101627.78;7405153;19;19932;-75
2023/08/14 06:56:00;;;;;;;10.05;4.75;;;;;;;17.33;85.48;101621.31;7404605;19;19938;-75
2023/08/14 06:58:28;;;;;;;6.55;4.80;;;;;;;17.40;85.29;101622.19;7405207;19;19931;-76
2023/08/14 07:00:58;;;;;;;7.72;4.07;;;;;;;17.46;85.35;101622.22;7404893;19;19939;-76
2023/08/14 07:03:27;;;;;;;9.18;4.75;;;;;;;17.54;84.72;101626.66;7405689;19;19911;-75
2023/08/14 07:05:58;;;;;;;6.53;4.82;;;;;;;17.56;84.64;101619.94;7405208;19;19915;-76
2023/08/14 07:08:27;;;;;;;8.02;4.60;;;;;;;17.58;83.98;101627.94;7405723;19;19911;-75
2023/08/14 07:10:55;;;;;;;11.00;4.85;;;;;;;17.60;83.86;101632.13;7406207;19;19926;-76
2023/08/14 07:13:24;;;;;;;13.50;5.00;;;;;;;17.64;84.05;101635.31;7405281;19;19918;-76
2023/08/14 07:15:53;;;;;;;8.02;4.57;;;;;;;17.67;83.70;101637.63;7404532;19;19919;-75
2023/08/14 07:18:21;;;;;;;5.88;5.25;;;;;;;17.71;84.05;101638.03;7407064;19;19923;-76
2023/08/14 07:20:51;;;;;;;7.22;4.78;;;;;;;17.71;83.59;101646.22;7404713;19;19915;-75
2023/08/14 07:23:23;;;;;;;8.32;4.72;;;;;;;17.72;83.75;101648.75;7404835;19;19918;-75
2023/08/14 07:25:52;;;;;;;6.90;4.78;;;;;;;17.73;83.67;101650.44;7405014;19;20354;-76
2023/08/14 07:28:21;;;;;;;8.35;4.72;;;;;;;17.75;84.46;101652.94;7405411;19;19922;-76
2023/08/14 07:30:50;;;;;;;8.65;5.05;;;;;;;17.76;83.94;101652.75;7405164;19;19918;-75
2023/08/14 07:33:19;;;;;;;8.15;4.90;;;;;;;17.74;83.71;101654.81;7403396;19;19922;-75
2023/08/14 07:35:47;;;;;;;12.02;5.07;;;;;;;17.78;84.37;101666.16;7404225;19;19933;-76
2023/08/14 07:38:16;;;;;;;7.53;4.97;;;;;;;17.83;84.21;101660.94;7404214;19;19939;-76
2023/08/14 07:40:47;;;;;;;8.40;5.25;;;;;;;17.88;84.23;101669.34;7401847;19;19928;-76
2023/08/14 07:43:16;;;;;;;8.55;4.88;;;;;;;17.93;84.52;101670.41;7404029;19;19914;-76
2023/08/14 07:45:44;;;;;;;9.52;5.82;;;;;;;18.00;84.49;101659.50;7403907;19;19915;-75
2023/08/14 07:48:13;;;;;;;4.47;3.72;;;;;;;18.05;83.63;101668.75;7404264;19;19919;-76
2023/08/14 07:50:41;;;;;;;6.32;3.83;;;;;;;18.10;83.03;101666.25;7403733;19;20340;-75
2023/08/14 07:53:10;;;;;;;7.57;3.60;;;;;;;18.17;82.71;101670.84;7402790;19;19915;-77
2023/08/14 07:55:39;;;;;;;4.40;2.85;;;;;;;18.24;81.95;101666.28;7403122;19;19978;-77
2023/08/14 07:58:10;;;;;;;5.63;3.65;;;;;;;18.35;82.38;101674.66;7403597;19;19919;-77
2023/08/14 08:00:39;;;;;;;7.28;3.03;;;;;;;18.49;81.43;101670.06;7403439;19;19917;-77
2023/08/14 08:03:07;;;;;;;7.28;3.20;;;;;;;18.65;81.25;101666.09;7403819;19;19927;-77
2023/08/14 08:05:36;;;;;;;6.88;3.40;;;;;;;18.80;81.06;101662.13;7403371;19;19926;-77
2023/08/14 08:08:06;;;;;;;4.97;3.28;;;;;;;18.97;80.14;101663.34;7403513;19;19922;-76
2023/08/14 08:10:35;;;;;;;5.32;3.20;;;;;;;19.12;80.11;101662.25;7403165;19;19938;-74
2023/08/14 08:13:04;;;;;;;5.68;3.63;;;;;;;19.27;79.95;101658.22;7403151;19;19919;-73
2023/08/14 08:15:35;;;;;;;6.43;3.60;;;;;;;19.42;79.27;101655.22;7403324;19;19986;-75
2023/08/14 08:18:04;;;;;;;5.45;3.47;;;;;;;19.57;79.44;101658.56;7402756;19;19931;-74
2023/08/14 08:20:32;;;;;;;7.32;3.20;;;;;;;19.66;78.06;101656.44;7402595;19;20277;-74
2023/08/14 08:23:01;;;;;;;5.05;3.17;;;;;;;19.72;77.55;101653.66;7403108;19;19935;-74
2023/08/14 08:25:30;;;;;;;8.25;4.10;;;;;;;19.76;77.63;101654.88;7402593;19;19918;-74
2023/08/14 08:27:58;;;;;;;6.70;3.50;;;;;;;19.83;77.19;101649.41;7402434;19;19938;-75
2023/08/14 08:30:27;;;;;;;8.52;3.47;;;;;;;19.93;76.41;101641.56;7402385;19;19943;-76
2023/08/14 08:32:59;;;;;;;4.22;2.88;;;;;;;20.06;76.85;101643.38;7402667;19;20574;-75
2023/08/14 08:35:27;;;;;;;5.22;3.03;;;;;;;20.16;75.40;101641.81;7403100;19;19935;-75
2023/08/14 08:37:56;;;;;;;6.35;2.85;;;;;;;20.29;75.33;101639.00;7401242;19;19930;-75
2023/08/14 08:40:25;;;;;;;6.00;3.20;;;;;;;20.39;74.62;101638.53;7401563;19;19932;-74
2023/08/14 08:42:54;;;;;;;7.03;3.00;;;;;;;20.51;74.85;101630.41;7402940;19;20372;-75
2023/08/14 08:45:25;;;;;;;4.80;3.05;;;;;;;20.59;73.76;101622.75;7402605;19;19938;-75
2023/08/14 08:47:56;;;;;;;6.57;2.85;;;;;;;20.64;73.80;101625.66;7402449;19;19946;-74
2023/08/14 08:50:28;;;;;;;6.05;2.28;;;;;;;20.69;72.97;101620.34;7402498;19;19919;-75
2023/08/14 08:52:57;;;;;;;8.65;3.03;;;;;;;20.75;74.21;101618.63;7402607;19;20260;-75
2023/08/14 08:55:26;;;;;;;4.75;2.30;;;;;;;20.81;73.34;101623.19;7401959;19;19927;-75
2023/08/14 08:57:58;;;;;;;3.10;2.00;;;;;;;20.86;70.81;101623.34;7401378;19;19923;-75
2023/08/14 09:00:27;;;;;;;3.72;2.33;;;;;;;20.92;72.00;101618.88;7402597;19;19919;-75
2023/08/14 09:02:55;;;;;;;5.55;1.75;;;;;;;20.90;70.72;101619.09;7402341;19;19924;-75
2023/08/14 09:05:27;;;;;;;2.40;1.70;;;;;;;20.91;70.11;101630.88;7401960;19;19923;-74
2023/08/14 09:07:55;;;;;;;4.32;1.98;;;;;;;20.99;70.81;101631.41;7401942;19;19919;-75
2023/08/14 09:10:24;;;;;;;3.42;1.70;;;;;;;21.10;69.76;101627.91;7401570;19;19942;-76
2023/08/14 09:12:53;;;;;;;6.95;2.10;;;;;;;21.11;70.17;101629.59;7401175;19;19935;-76
2023/08/14 09:15:24;;;;;;;6.15;2.00;;;;;;;21.11;69.47;101639.72;7401272;19;19919;-76
2023/08/14 09:17:53;;;;;;;4.78;1.90;;;;;;;21.15;68.49;101628.09;7404097;19;20292;-76
2023/08/14 09:20:23;;;;;;;4.40;2.00;;;;;;;21.31;69.02;101625.84;7401178;19;20253;-75
2023/08/14 09:22:58;;;;;;;7.18;2.35;;;;;;;21.35;65.91;101616.09;7401224;19;19918;-76
2023/08/14 09:25:28;;;;;;;5.88;2.38;;;;;;;21.34;67.63;101614.41;7400663;19;19923;-76
2023/08/14 09:27:57;;;;;;;5.85;2.35;;;;;;;21.30;68.04;101610.44;7401234;19;19941;-75
2023/08/14 09:30:27;;;;;;;4.60;2.55;;;;;;;21.26;67.40;101621.03;7400901;19;19923;-76
2023/08/14 09:32:57;;;;;;;5.30;2.20;;;;;;;21.35;67.84;101632.53;7400770;19;19915;-75
2023/08/14 09:35:25;;;;;;;6.15;2.13;;;;;;;21.39;66.78;101622.78;7400851;19;19921;-76
2023/08/14 09:37:56;;;;;;;3.75;1.88;;;;;;;21.48;67.17;101627.72;7399149;19;19918;-76
2023/08/14 09:40:25;;;;;;;4.22;2.08;;;;;;;21.58;66.78;101625.25;7399271;19;19919;-76
2023/08/14 09:42:55;;;;;;;6.00;2.40;;;;;;;21.65;66.01;101637.00;7400182;19;19946;-76
2023/08/14 09:45:24;;;;;;;3.85;2.40;;;;;;;21.70;65.97;101634.34;7400630;19;19911;-75
2023/08/14 09:47:54;;;;;;;4.78;2.45;;;;;;;21.82;66.47;101628.94;7400584;19;19910;-76
2023/08/14 09:50:26;;;;;;;5.68;2.05;;;;;;;21.96;65.58;101622.22;7400374;19;19919;-75
2023/08/14 09:52:58;;;;;;;5.60;2.10;;;;;;;22.06;64.83;101627.97;7400755;19;19935;-76
2023/08/14 09:55:28;;;;;;;4.75;2.47;;;;;;;22.07;65.25;101632.41;7398666;19;19918;-76
2023/08/14 09:57:57;;;;;;;4.93;2.67;;;;;;;22.07;64.35;101631.56;7398773;19;19925;-75
2023/08/14 10:00:29;;;;;;;4.38;1.90;;;;;;;22.20;64.85;101642.34;7400401;19;19941;-76
2023/08/14 10:02:59;;;;;;;3.58;1.88;;;;;;;22.27;63.54;101634.81;7399782;19;19918;-75
2023/08/14 10:05:29;;;;;;;2.72;1.77;;;;;;;22.35;63.38;101630.91;7400278;19;19921;-75
2023/08/14 10:08:01;;;;;;;3.35;1.58;;;;;;;22.40;61.33;101623.63;7400375;19;19915;-76
2023/08/14 10:10:33;;;;;;;3.08;1.40;;;;;;;22.51;62.86;101624.72;7399509;19;19926;-76
2023/08/14 10:13:05;;;;;;;4.60;1.77;;;;;;;22.59;61.55;101622.47;7399555;19;19945;-76
2023/08/14 10:15:37;;;;;;;5.75;1.45;;;;;;;22.69;62.27;101605.41;7399353;19;19917;-76
2023/08/14 10:18:11;;;;;;;4.00;1.60;;;;;;;22.86;61.84;101595.38;7402264;19;19943;-76
2023/08/14 10:20:43;;;;;;;3.05;1.85;;;;;;;23.04;62.01;101591.63;7399535;19;20543;-76
2023/08/14 10:23:16;;;;;;;;;;;;;;;22.85;58.49;101603.84;7402300;19;19937;-76
2023/08/14 10:25:50;;;;;;;7.47;1.73;;;;;;;23.04;60.79;101608.94;7399747;19;19915;-77
2023/08/14 10:28:20;;;;;;;4.00;1.38;;;;;;;23.23;60.91;101601.41;7399826;19;19914;-76
2023/08/14 10:30:49;;;;;;;3.92;1.80;;;;;;;23.36;60.20;101595.63;7399249;19;19910;-76
2023/08/14 10:33:19;;;;;;;4.90;1.58;;;;;;;23.33;58.72;101596.13;7399476;19;19930;-76
2023/08/14 10:35:51;;;;;;;3.50;1.25;;;;;;;23.42;59.17;101596.56;7398952;19;19914;-76
2023/08/14 10:38:24;;;;;;;3.72;1.35;;;;;;;23.57;57.81;101587.78;7398339;19;19915;-77
2023/08/14 10:40:54;;;;;;;3.67;1.55;;;;;;;23.72;57.84;101588.94;7397517;19;20692;-76
2023/08/14 10:43:26;;;;;;;4.50;1.75;;;;;;;23.86;57.63;101576.53;7398538;19;20352;-76
2023/08/14 10:45:55;;;;;;;3.75;1.83;;;;;;;23.79;57.84;101569.50;7398784;19;19918;-77
2023/08/14 10:48:24;;;;;;;4.40;1.80;;;;;;;23.83;57.56;101570.69;7398615;19;20355;-76
2023/08/14 10:51:00;;;;;;;5.38;1.73;;;;;;;23.84;55.27;101575.13;7397987;19;19918;-76
2023/08/14 10:53:32;;;;;;;3.78;1.50;;;;;;;23.96;55.90;101573.13;7398815;19;19921;-76
2023/08/14 10:56:01;;;;;;;3.90;1.45;;;;;;;24.17;56.00;101577.94;7397753;19;19966;-77
2023/08/14 10:58:44;;;;;;;4.78;1.38;;;;;;;24.40;55.15;101580.53;7396574;19;19922;-77
2023/08/14 11:01:13;;;;;;;4.65;2.00;;;;;;;24.52;54.72;101574.91;7398048;19;19925;-76
2023/08/14 11:04:01;;;;;;;5.68;1.80;;;;;;;24.38;52.19;101579.91;7397399;19;19919;-76
2023/08/14 11:06:31;;;;;;;2.53;1.17;;;;;;;24.39;54.33;101573.34;7398509;19;19914;-76
2023/08/14 11:09:06;;;;;;;5.30;1.38;;;;;;;24.36;53.54;101573.84;7404892;19;19929;-76
2023/08/14 11:11:34;;;;;;;2.58;1.10;;;;;;;24.25;54.37;101579.41;7404551;19;19925;-76
2023/08/14 11:14:03;;;;;;;5.15;1.35;;;;;;;24.11;55.35;101569.81;7404284;19;19937;-77
2023/08/14 11:16:32;;;;;;;4.25;1.35;;;;;;;24.25;54.40;101569.25;7405945;19;19922;-76
2023/08/14 11:19:02;;;;;;;4.55;1.67;;;;;;;24.54;54.15;101577.41;7401854;19;19954;-76
2023/08/14 11:21:31;;;;;;;3.00;1.45;;;;;;;24.54;53.48;101578.25;7404504;19;19941;-77
2023/08/14 11:24:02;;;;;;;5.90;1.85;;;;;;;24.61;54.50;101576.16;7404608;19;19914;-77
2023/08/14 11:26:32;;;;;;;3.30;1.35;;;;;;;24.82;53.33;101577.28;7404191;19;20151;-77
2023/08/14 11:29:00;;;;;;;3.15;1.30;;;;;;;24.54;52.71;101571.91;7404835;19;19942;-77
2023/08/14 11:31:29;;;;;;;6.32;1.88;;;;;;;24.23;53.52;101568.69;7404070;19;19919;-77
2023/08/14 11:33:58;;;;;;;4.90;1.40;;;;;;;24.13;54.18;101565.72;7404005;19;19919;-77
2023/08/14 11:36:27;;;;;;;4.25;1.40;;;;;;;24.21;54.41;101572.75;7403729;19;19927;-77
2023/08/14 11:38:56;;;;;;;3.72;1.88;;;;;;;24.04;53.63;101566.38;7401969;19;19915;-77